FXE weather

Public forecast

Using degrees Fahrenheit for public forecast. Weather courtesy of forecast.io.

Current aviation weather report (METAR) for Fort Lauderdale Executive Airport

Retrieved 2020/08/10 01:53 UTC (1 hour ago):

KFXE 100153Z AUTO 09007KT 10SM CLR 29/25 A3012 RMK AO2 SLP202 T02940250 TSNO PNO

Aviation forecast (TAF) for Fort Lauderdale Executive Airport

Retrieved 2020-08-10 00:34 UTC (2 hours ago):

TAF KFXE 092331Z 1000/1024 09010KT P6SM FEW025 SCT100 FM101000 VRB03KT P6SM VCSH SCT020 SCT100 FM101500 09006KT P6SM VCTS SCT030CB SCT200 FM101900 09010KT P6SM SCT030 SCT250